Time;durP1;ratioP1;P1;durP2;ratioP2;P2;SDS_P1;SDS_P2;PMS_P1;PMS_P2;Temp;Humidity;BMP_temperature;BMP_pressure;BME280_temperature;BME280_humidity;BME280_pressure;Samples;Min_cycle;Max_cycle;Signal;HPM_P1;HPM_P2
2020/12/10 00:00:43;;;;;;;23.85;12.43;;;;;;;2.36;87.22;99889.38;5054945;28;20563;-70
2020/12/10 00:03:27;;;;;;;23.17;12.80;;;;;;;2.29;87.61;99888.09;5055299;28;20496;-69
2020/12/10 00:06:11;;;;;;;29.63;14.07;;;;;;;2.36;87.36;99889.38;5054326;28;20102;-69
2020/12/10 00:08:55;;;;;;;23.58;12.95;;;;;;;2.33;87.84;99888.75;5053885;28;20109;-69
2020/12/10 00:11:39;;;;;;;24.30;14.23;;;;;;;2.30;87.65;99878.44;5055188;28;20097;-67
2020/12/10 00:14:22;;;;;;;24.38;13.38;;;;;;;2.36;87.65;99878.84;5055143;28;20047;-68
2020/12/10 00:17:06;;;;;;;24.08;13.75;;;;;;;2.28;87.66;99875.88;5054834;28;20540;-67
2020/12/10 00:19:50;;;;;;;24.08;13.70;;;;;;;2.40;87.26;99867.16;5054742;28;20563;-67
2020/12/10 00:22:35;;;;;;;28.40;13.65;;;;;;;2.43;87.05;99859.94;5039660;28;20118;-69
2020/12/10 00:25:18;;;;;;;26.40;13.73;;;;;;;2.40;86.65;99853.19;5053598;28;20051;-70
2020/12/10 00:28:02;;;;;;;23.48;13.35;;;;;;;2.43;87.05;99857.28;5053559;28;20130;-70
2020/12/10 00:30:47;;;;;;;24.17;13.65;;;;;;;2.35;87.45;99850.88;5053741;28;20087;-70
2020/12/10 00:33:31;;;;;;;28.27;14.13;;;;;;;2.37;87.56;99843.72;5054695;28;20200;-67
2020/12/10 00:36:15;;;;;;;24.58;13.38;;;;;;;2.31;88.71;99841.50;5054697;28;20087;-69
2020/12/10 00:39:00;;;;;;;27.10;14.70;;;;;;;2.26;88.61;99846.22;5053344;28;20051;-67
2020/12/10 00:41:44;;;;;;;24.35;13.45;;;;;;;2.29;87.59;99839.94;5053607;28;20508;-68
2020/12/10 00:44:29;;;;;;;27.48;13.80;;;;;;;2.33;87.58;99834.34;5053546;28;20059;-67
2020/12/10 00:47:16;;;;;;;27.10;15.00;;;;;;;2.34;87.72;99827.28;5039374;28;20060;-69
2020/12/10 00:49:59;;;;;;;25.80;14.23;;;;;;;2.38;88.08;99829.63;5053557;28;20056;-68
2020/12/10 00:52:43;;;;;;;25.35;14.73;;;;;;;2.39;87.60;99827.84;5053337;28;20119;-69
2020/12/10 00:55:27;;;;;;;24.00;14.07;;;;;;;2.37;87.88;99829.75;5053280;28;20052;-69
2020/12/10 00:58:11;;;;;;;25.15;13.52;;;;;;;2.30;88.08;99831.09;5054267;28;20071;-68
2020/12/10 01:00:55;;;;;;;28.48;15.23;;;;;;;2.27;89.05;99821.59;5052935;28;20098;-69
2020/12/10 01:03:39;;;;;;;26.90;14.55;;;;;;;2.25;89.70;99833.16;5052951;28;20051;-69
2020/12/10 01:06:23;;;;;;;25.92;13.75;;;;;;;2.27;89.87;99836.56;5054120;28;20413;-70
2020/12/10 01:09:08;;;;;;;26.48;14.00;;;;;;;2.27;90.36;99832.13;5053021;28;20132;-70
2020/12/10 01:11:53;;;;;;;25.27;13.77;;;;;;;2.30;90.53;99826.69;5052499;28;20094;-69
2020/12/10 01:14:36;;;;;;;;;;;;;;;2.32;90.57;99829.19;5054335;28;20083;-69
2020/12/10 01:17:20;;;;;;;23.50;12.95;;;;;;;2.35;90.60;99821.94;5053683;28;20300;-69
2020/12/10 01:20:04;;;;;;;24.83;13.70;;;;;;;2.44;89.29;99823.94;5052846;28;20102;-69
2020/12/10 01:22:48;;;;;;;26.65;14.48;;;;;;;2.47;88.55;99823.72;5052790;28;20106;-69
2020/12/10 01:25:32;;;;;;;26.77;14.18;;;;;;;2.51;88.20;99823.44;5053544;28;20512;-69
2020/12/10 01:28:16;;;;;;;22.88;13.77;;;;;;;2.56;87.25;99817.84;5053541;28;20083;-69
2020/12/10 01:31:00;;;;;;;28.33;14.40;;;;;;;2.57;86.77;99816.91;5053676;28;20078;-69
2020/12/10 01:33:44;;;;;;;25.95;14.52;;;;;;;2.52;87.18;99811.94;5038598;28;20052;-69
2020/12/10 01:36:29;;;;;;;29.08;15.73;;;;;;;2.47;87.17;99813.22;5052658;28;20509;-69
2020/12/10 01:39:13;;;;;;;28.00;14.05;;;;;;;2.49;87.53;99809.53;5052370;28;20052;-70
2020/12/10 01:42:01;;;;;;;25.92;13.93;;;;;;;2.44;87.66;99813.44;5053255;28;20048;-69
2020/12/10 01:44:44;;;;;;;25.60;14.50;;;;;;;2.42;87.62;99804.81;5053231;28;20060;-69
2020/12/10 01:47:31;;;;;;;26.63;14.82;;;;;;;2.45;87.34;99804.59;5052420;28;20044;-69
2020/12/10 01:50:15;;;;;;;26.98;14.98;;;;;;;2.42;87.47;99806.59;5052198;28;20059;-69
2020/12/10 01:52:59;;;;;;;23.42;14.40;;;;;;;2.40;88.05;99804.03;5052278;28;20044;-69
2020/12/10 01:55:42;;;;;;;24.52;13.95;;;;;;;2.46;87.77;99793.13;5052235;28;20468;-69
2020/12/10 01:58:26;;;;;;;26.33;14.57;;;;;;;2.55;86.59;99789.84;5052476;28;20047;-68
2020/12/10 02:01:12;;;;;;;27.17;14.98;;;;;;;2.50;86.72;99791.94;5052530;28;20408;-68
2020/12/10 02:03:56;;;;;;;25.85;14.68;;;;;;;2.49;87.15;99793.75;5038540;28;20183;-68
2020/12/10 02:06:40;;;;;;;24.60;14.25;;;;;;;2.44;87.46;99789.75;5052359;28;20132;-67
2020/12/10 02:09:24;;;;;;;27.60;14.82;;;;;;;2.45;87.29;99791.44;5052254;28;20098;-68
2020/12/10 02:12:09;;;;;;;25.23;14.25;;;;;;;2.44;87.33;99793.22;5037993;28;20043;-68
2020/12/10 02:14:52;;;;;;;25.42;15.23;;;;;;;2.44;87.37;99787.13;5053059;28;20094;-68
2020/12/10 02:17:36;;;;;;;27.70;15.35;;;;;;;2.44;87.27;99776.59;5051979;28;20055;-68
2020/12/10 02:20:21;;;;;;;26.13;14.63;;;;;;;2.42;86.97;99783.75;5052985;28;20055;-68
2020/12/10 02:23:07;;;;;;;28.52;15.88;;;;;;;2.43;87.31;99783.63;5051876;28;20559;-68
2020/12/10 02:25:51;;;;;;;29.38;15.52;;;;;;;2.37;87.46;99780.59;5041842;28;20086;-68
2020/12/10 02:28:34;;;;;;;29.27;16.08;;;;;;;2.45;87.11;99778.28;5056084;28;20048;-69
2020/12/10 02:31:27;;;;;;;31.55;15.43;;;;;;;2.36;87.92;99783.34;5056316;28;20098;-70
2020/12/10 02:34:12;;;;;;;29.35;15.30;;;;;;;2.33;88.15;99768.59;5055701;28;20047;-69
2020/12/10 02:36:56;;;;;;;28.05;15.43;;;;;;;2.31;88.72;99770.50;5056851;28;20091;-69
2020/12/10 02:39:40;;;;;;;26.00;14.85;;;;;;;2.32;89.60;99763.44;5056786;28;20523;-70
2020/12/10 02:42:24;;;;;;;28.05;15.75;;;;;;;2.32;90.02;99751.16;5056769;28;20095;-70
2020/12/10 02:45:08;;;;;;;25.90;15.73;;;;;;;2.36;90.40;99760.50;5055881;28;20474;-67
2020/12/10 02:47:53;;;;;;;27.35;15.27;;;;;;;2.39;90.24;99749.75;5041740;28;20513;-70
2020/12/10 02:50:37;;;;;;;25.65;14.25;;;;;;;2.40;89.58;99742.72;5056658;28;20090;-69
2020/12/10 02:53:21;;;;;;;26.40;14.18;;;;;;;2.42;89.78;99744.31;5055571;28;20056;-69
2020/12/10 02:56:10;;;;;;;27.70;14.32;;;;;;;2.42;90.34;99727.66;5056328;28;20460;-69
2020/12/10 02:58:54;;;;;;;26.48;15.05;;;;;;;2.40;90.71;99733.03;5041143;28;20099;-70
2020/12/10 03:01:39;;;;;;;26.83;14.77;;;;;;;2.38;90.74;99729.66;5055517;28;20521;-68
2020/12/10 03:04:22;;;;;;;23.80;14.60;;;;;;;2.38;91.19;99729.66;5056518;28;20051;-69
2020/12/10 03:07:06;;;;;;;;;;;;;;;2.38;91.13;99719.13;5055764;28;20094;-69
2020/12/10 03:09:50;;;;;;;27.67;15.60;;;;;;;2.40;90.93;99721.69;5041236;28;19924;-68
2020/12/10 03:12:35;;;;;;;28.20;16.15;;;;;;;2.38;91.16;99716.50;5055312;28;20043;-69
2020/12/10 03:15:19;;;;;;;28.23;15.88;;;;;;;2.40;91.07;99716.41;5056205;28;20468;-70
2020/12/10 03:18:03;;;;;;;25.85;15.90;;;;;;;2.40;90.70;99713.78;5055967;28;20094;-69
2020/12/10 03:20:47;;;;;;;27.30;15.20;;;;;;;2.42;90.87;99711.88;5055707;28;20531;-69
2020/12/10 03:23:31;;;;;;;27.83;15.52;;;;;;;2.44;90.75;99713.47;5040638;28;20186;-69
2020/12/10 03:26:15;;;;;;;30.98;16.65;;;;;;;2.45;90.48;99702.00;5055824;28;20122;-69
2020/12/10 03:28:59;;;;;;;28.27;15.90;;;;;;;2.50;90.22;99707.75;5055699;28;20051;-69
2020/12/10 03:31:43;;;;;;;28.27;16.08;;;;;;;2.51;89.71;99709.47;5054937;28;20441;-69
2020/12/10 03:34:28;;;;;;;30.33;16.45;;;;;;;2.51;90.49;99694.50;5054486;28;20095;-69
2020/12/10 03:37:12;;;;;;;24.95;15.30;;;;;;;2.54;90.20;99694.28;5054910;28;20048;-69
2020/12/10 03:39:56;;;;;;;25.17;15.07;;;;;;;2.54;89.85;99694.28;5054593;28;20052;-69
2020/12/10 03:42:40;;;;;;;27.38;14.43;;;;;;;2.55;89.93;99685.47;5054424;28;20048;-69
2020/12/10 03:45:24;;;;;;;29.25;15.10;;;;;;;2.58;90.19;99684.38;5040424;28;20139;-69
2020/12/10 03:48:08;;;;;;;26.98;15.05;;;;;;;2.59;91.14;99683.44;5054682;28;20066;-69
2020/12/10 03:50:52;;;;;;;25.27;14.85;;;;;;;2.57;90.74;99678.31;5055233;28;20124;-69
2020/12/10 03:53:36;;;;;;;27.35;14.98;;;;;;;2.57;90.55;99680.09;5040239;28;20044;-69
2020/12/10 03:56:20;;;;;;;24.58;14.88;;;;;;;2.57;90.95;99673.03;5054246;28;20183;-67
2020/12/10 03:59:04;;;;;;;24.50;13.73;;;;;;;2.58;91.13;99661.56;5054395;28;20171;-69
2020/12/10 04:01:49;;;;;;;23.08;12.98;;;;;;;2.58;91.27;99664.19;5054138;28;20413;-69
2020/12/10 04:04:32;;;;;;;25.92;14.00;;;;;;;2.57;92.45;99659.88;5054435;28;20047;-69
2020/12/10 04:07:16;;;;;;;27.98;14.77;;;;;;;2.56;92.58;99658.22;5054185;28;20056;-69
2020/12/10 04:10:00;;;;;;;25.42;16.00;;;;;;;2.54;92.16;99656.63;5055056;28;20567;-69
2020/12/10 04:12:44;;;;;;;26.70;15.57;;;;;;;2.53;92.21;99657.59;5039839;28;20426;-69
2020/12/10 04:15:28;;;;;;;30.38;15.88;;;;;;;2.55;92.38;99647.78;5054125;28;20078;-69
2020/12/10 04:18:12;;;;;;;26.10;13.38;;;;;;;2.56;93.08;99654.72;5055063;28;20087;-69
2020/12/10 04:20:57;;;;;;;26.13;14.70;;;;;;;2.57;93.12;99635.34;5053867;28;20083;-69
2020/12/10 04:23:41;;;;;;;28.38;15.13;;;;;;;2.55;92.98;99643.38;5054645;28;20055;-69
2020/12/10 04:26:24;;;;;;;26.77;15.70;;;;;;;2.54;93.03;99640.84;5039573;28;20122;-69
2020/12/10 04:29:13;;;;;;;27.67;15.52;;;;;;;2.53;93.49;99631.28;5054780;28;20575;-70
2020/12/10 04:31:57;;;;;;;32.35;17.40;;;;;;;2.57;93.05;99632.72;5053867;28;20064;-69
2020/12/10 04:34:41;;;;;;;30.45;17.38;;;;;;;2.58;92.43;99648.41;5053767;28;20087;-69
2020/12/10 04:37:24;;;;;;;28.85;17.23;;;;;;;2.57;92.67;99656.41;5053653;28;20052;-69
2020/12/10 04:40:09;;;;;;;27.85;16.33;;;;;;;2.56;92.75;99649.47;5053615;28;20086;-69
2020/12/10 04:42:54;;;;;;;24.48;14.60;;;;;;;2.50;92.73;99644.63;5053668;28;20044;-69
2020/12/10 04:45:38;;;;;;;28.83;15.63;;;;;;;2.53;93.16;99639.16;5053189;28;20051;-69
2020/12/10 04:48:25;;;;;;;23.95;14.43;;;;;;;2.57;92.85;99648.50;5054393;28;20413;-69
2020/12/10 04:51:10;;;;;;;30.05;16.35;;;;;;;2.57;92.81;99646.72;5053402;28;20094;-69
2020/12/10 04:53:54;;;;;;;28.52;16.13;;;;;;;2.59;92.62;99633.44;5054226;28;20048;-69
2020/12/10 04:56:38;;;;;;;30.67;16.73;;;;;;;2.59;93.11;99628.19;5054073;28;20051;-68
2020/12/10 04:59:22;;;;;;;28.42;16.23;;;;;;;2.56;92.65;99626.63;5054269;28;20052;-69
2020/12/10 05:02:11;;;;;;;27.15;16.00;;;;;;;2.55;92.40;99632.00;5053950;28;20172;-69
2020/12/10 05:04:55;;;;;;;25.92;15.57;;;;;;;2.58;92.65;99626.50;5054214;28;20144;-67
2020/12/10 05:07:39;;;;;;;28.67;15.88;;;;;;;2.59;92.47;99617.66;5053166;28;20103;-69
2020/12/10 05:10:23;;;;;;;29.75;15.68;;;;;;;2.61;92.92;99621.03;5052734;28;20579;-69
2020/12/10 05:13:08;;;;;;;22.80;14.02;;;;;;;2.60;93.37;99611.44;5054142;28;20575;-69
2020/12/10 05:15:52;;;;;;;24.75;14.68;;;;;;;2.57;93.65;99616.94;5053625;28;20055;-69
2020/12/10 05:18:36;;;;;;;24.75;14.23;;;;;;;2.55;94.07;99605.69;5055950;28;20126;-69
2020/12/10 05:21:20;;;;;;;29.27;15.60;;;;;;;2.57;93.93;99609.91;5078585;22;20063;-66
2020/12/10 05:24:19;;;;;;;26.48;14.60;;;;;;;2.59;93.71;99607.13;5058580;28;20432;-65
2020/12/10 05:27:20;;;;;;;30.33;17.25;;;;;;;2.57;93.33;99603.78;5074083;28;20070;-66
2020/12/10 05:30:05;;;;;;;29.55;16.65;;;;;;;2.56;93.56;99596.84;5058633;28;20102;-66
2020/12/10 05:32:49;;;;;;;29.75;15.43;;;;;;;2.55;93.88;99589.91;5073857;28;20393;-66
2020/12/10 05:35:33;;;;;;;25.98;15.23;;;;;;;2.56;93.96;99597.69;5073430;28;20090;-66
2020/12/10 05:38:17;;;;;;;28.45;15.43;;;;;;;2.55;94.10;99597.78;5073497;28;20047;-66
2020/12/10 05:41:17;;;;;;;;;;;;;;;2.53;94.71;99599.69;5073984;28;20129;-66
2020/12/10 05:44:18;;;;;;;29.92;16.02;;;;;;;2.57;94.58;99599.38;5072524;28;19923;-66
2020/12/10 05:47:04;;;;;;;28.55;15.95;;;;;;;2.55;94.47;99595.16;5073560;28;20098;-66
2020/12/10 05:49:48;;;;;;;30.10;16.33;;;;;;;2.55;94.32;99603.91;5072503;28;20409;-66
2020/12/10 05:52:37;;;;;;;29.98;15.88;;;;;;;2.55;94.21;99596.03;5073449;28;20039;-66
2020/12/10 05:55:21;;;;;;;24.30;14.90;;;;;;;2.58;94.31;99601.06;5072191;28;20480;-66
2020/12/10 05:58:06;;;;;;;31.40;16.55;;;;;;;2.57;94.26;99598.53;5073292;28;20091;-66
2020/12/10 06:00:50;;;;;;;26.13;16.33;;;;;;;2.57;94.21;99601.16;5073068;28;20044;-65
2020/12/10 06:03:34;;;;;;;29.05;15.85;;;;;;;2.55;94.00;99597.78;5058072;28;20129;-66
2020/12/10 06:06:20;;;;;;;62.55;32.22;;;;;;;2.54;94.41;99598.75;5072347;28;20563;-66
2020/12/10 06:09:05;;;;;;;45.25;21.30;;;;;;;2.57;94.15;99595.88;5072015;28;20087;-66
2020/12/10 06:12:00;;;;;;;36.80;19.42;;;;;;;2.56;94.52;99602.09;5057813;28;20052;-66
2020/12/10 06:14:58;;;;;;;33.10;17.65;;;;;;;2.58;94.52;99610.72;5072181;28;20050;-66
2020/12/10 06:18:19;;;;;;;31.85;18.40;;;;;;;2.58;94.93;99601.06;5072954;28;20576;-66
2020/12/10 06:21:10;;;;;;;30.27;16.77;;;;;;;2.59;95.09;99602.72;5072750;28;20086;-66
2020/12/10 06:23:54;;;;;;;27.08;15.35;;;;;;;2.61;94.83;99610.53;5058642;28;20138;-67
2020/12/10 06:26:38;;;;;;;26.83;14.55;;;;;;;2.60;95.09;99611.44;5072132;28;20125;-67
2020/12/10 06:29:27;;;;;;;31.65;16.27;;;;;;;2.59;95.52;99612.41;5072832;28;20102;-67
2020/12/10 06:32:14;;;;;;;27.75;15.52;;;;;;;2.59;95.25;99608.00;5072788;28;20079;-67
2020/12/10 06:34:58;;;;;;;27.08;15.75;;;;;;;2.57;95.41;99607.28;5072001;28;20128;-67
2020/12/10 06:37:47;;;;;;;28.58;15.27;;;;;;;2.56;95.57;99613.47;5072750;28;20075;-67
2020/12/10 06:40:41;;;;;;;39.60;19.33;;;;;;;2.58;95.71;99613.34;5071856;28;20074;-67
2020/12/10 06:43:35;;;;;;;32.95;17.85;;;;;;;2.58;95.67;99615.97;5072869;28;20504;-67
2020/12/10 06:46:19;;;;;;;35.60;17.10;;;;;;;2.55;95.41;99614.44;5073035;28;20131;-68
2020/12/10 06:49:04;;;;;;;30.13;16.48;;;;;;;2.63;95.21;99608.63;5071919;28;20094;-66
2020/12/10 06:52:09;;;;;;;30.02;16.75;;;;;;;2.63;94.79;99608.63;5075815;28;20523;-67
2020/12/10 06:55:19;;;;;;;29.92;16.10;;;;;;;2.63;94.62;99601.53;5072574;28;20047;-67
2020/12/10 06:58:14;;;;;;;28.67;17.60;;;;;;;2.65;94.86;99604.06;5071434;28;20515;-67
2020/12/10 07:00:58;;;;;;;32.47;17.88;;;;;;;2.67;94.99;99610.06;5058799;28;20048;-67
2020/12/10 07:03:43;;;;;;;26.63;16.40;;;;;;;2.68;94.97;99614.38;5071416;28;20051;-66
2020/12/10 07:06:27;;;;;;;31.27;16.65;;;;;;;2.70;95.23;99615.94;5071460;28;20048;-67
2020/12/10 07:09:14;;;;;;;30.73;16.85;;;;;;;2.74;94.17;99616.56;5072884;28;20141;-66
2020/12/10 07:11:58;;;;;;;30.33;16.83;;;;;;;2.72;93.80;99614.03;5075143;28;20151;-68
2020/12/10 07:14:42;;;;;;;29.60;16.35;;;;;;;2.73;93.17;99609.63;5075349;28;20113;-66
2020/12/10 07:17:26;;;;;;;29.05;16.50;;;;;;;2.74;92.77;99603.41;5075383;28;20082;-67
2020/12/10 07:20:10;;;;;;;32.17;16.30;;;;;;;2.74;92.39;99606.03;5074824;28;20048;-66
2020/12/10 07:22:55;;;;;;;29.92;16.45;;;;;;;2.69;91.87;99610.78;5076002;28;20065;-66
2020/12/10 07:25:39;;;;;;;27.83;15.82;;;;;;;2.68;91.89;99611.75;5075115;28;20177;-68
2020/12/10 07:28:23;;;;;;;;;;;;;;;2.65;92.24;99610.16;5075578;28;20109;-66
2020/12/10 07:31:17;;;;;;;30.88;15.82;;;;;;;2.65;92.28;99606.72;5075713;28;19919;-66
2020/12/10 07:34:01;;;;;;;29.73;15.80;;;;;;;2.59;91.92;99599.25;5075698;28;20044;-66
2020/12/10 07:36:50;;;;;;;26.15;15.23;;;;;;;2.59;91.70;99607.13;5075163;28;20091;-68
2020/12/10 07:39:34;;;;;;;32.72;17.95;;;;;;;2.65;92.24;99606.72;5075780;28;20051;-66
2020/12/10 07:42:19;;;;;;;29.90;17.67;;;;;;;2.65;91.54;99601.44;5060318;28;20055;-68
2020/12/10 07:45:14;;;;;;;28.95;16.88;;;;;;;2.72;92.00;99592.97;5074479;28;20170;-68
2020/12/10 07:48:00;;;;;;;27.23;16.15;;;;;;;2.77;91.51;99598.78;5074556;28;20113;-68
2020/12/10 07:50:45;;;;;;;27.35;15.77;;;;;;;2.83;91.14;99600.94;5075254;28;20098;-66
2020/12/10 07:53:29;;;;;;;26.58;15.48;;;;;;;2.85;90.90;99603.47;5073815;28;20040;-66
2020/12/10 07:56:22;;;;;;;28.73;15.85;;;;;;;2.92;90.70;99604.72;5074524;28;20059;-68
2020/12/10 07:59:10;;;;;;;26.65;15.38;;;;;;;2.96;90.67;99600.88;5075457;28;20048;-68
2020/12/10 08:01:56;;;;;;;25.88;15.38;;;;;;;3.01;90.54;99609.28;5074021;28;20047;-68
2020/12/10 08:04:42;;;;;;;29.65;16.17;;;;;;;3.05;90.65;99610.75;5075072;28;20112;-67
2020/12/10 08:07:26;;;;;;;28.65;16.08;;;;;;;3.07;90.95;99617.59;5074333;28;20047;-68
2020/12/10 08:10:20;;;;;;;28.13;16.38;;;;;;;3.09;90.67;99610.41;5074061;28;20070;-68
2020/12/10 08:13:17;;;;;;;27.63;15.35;;;;;;;3.15;89.95;99609.13;5075089;28;20071;-68
2020/12/10 08:16:08;;;;;;;29.02;17.52;;;;;;;3.19;89.22;99621.09;5073884;28;20110;-68
2020/12/10 08:18:52;;;;;;;24.98;15.32;;;;;;;3.24;88.91;99616.34;5075088;28;20062;-67
2020/12/10 08:21:36;;;;;;;25.02;15.23;;;;;;;3.28;88.56;99623.03;5073669;28;20101;-68
2020/12/10 08:24:38;;;;;;;40.58;23.88;;;;;;;3.32;87.84;99620.06;5073727;28;20051;-68
2020/12/10 08:27:24;;;;;;;41.67;21.63;;;;;;;3.36;87.40;99620.69;5074569;28;20090;-68
2020/12/10 08:30:10;;;;;;;30.02;17.63;;;;;;;3.40;87.33;99620.34;5073876;28;20050;-68
2020/12/10 08:32:59;;;;;;;29.73;17.40;;;;;;;3.48;86.91;99631.16;5059904;28;20133;-68
2020/12/10 08:35:45;;;;;;;45.03;23.50;;;;;;;3.54;86.03;99629.84;5074368;28;20138;-68
2020/12/10 08:38:29;;;;;;;35.47;19.80;;;;;;;3.56;84.82;99633.19;5074562;28;20055;-68
2020/12/10 08:41:23;;;;;;;129.60;61.85;;;;;;;3.62;81.88;99623.03;5073208;28;20098;-68
2020/12/10 08:44:08;;;;;;;103.72;48.88;;;;;;;3.60;77.74;99624.94;5073315;28;20051;-68
2020/12/10 08:47:00;;;;;;;136.68;66.40;;;;;;;3.69;76.52;99624.25;5074412;28;20468;-67
2020/12/10 08:49:44;;;;;;;18.40;11.15;;;;;;;3.76;74.92;99624.63;5073093;28;20188;-68
2020/12/10 08:52:28;;;;;;;58.92;35.80;;;;;;;3.82;75.04;99622.34;5074173;28;20051;-68
2020/12/10 08:55:11;;;;;;;25.08;16.40;;;;;;;3.90;73.16;99619.97;5074367;28;20052;-68
2020/12/10 08:57:56;;;;;;;12.48;10.15;;;;;;;3.93;73.62;99613.59;5073313;28;20139;-68
2020/12/10 09:00:40;;;;;;;9.00;5.47;;;;;;;3.94;73.58;99617.94;5073907;28;20055;-68
2020/12/10 09:03:24;;;;;;;17.20;13.50;;;;;;;3.96;73.60;99616.84;5072853;28;20102;-68
2020/12/10 09:06:08;;;;;;;28.52;19.70;;;;;;;4.03;73.40;99611.94;5073200;28;20423;-67
2020/12/10 09:08:53;;;;;;;17.05;10.80;;;;;;;4.02;70.84;99615.53;5073939;28;20119;-68
2020/12/10 09:11:37;;;;;;;10.25;5.90;;;;;;;4.02;72.30;99616.38;5073737;28;20098;-68
2020/12/10 09:14:20;;;;;;;23.60;10.73;;;;;;;4.03;72.49;99619.84;5074013;28;20447;-69
2020/12/10 09:17:04;;;;;;;18.83;12.00;;;;;;;4.11;71.89;99614.81;5072683;28;20051;-68
2020/12/10 09:19:48;;;;;;;19.42;10.85;;;;;;;4.07;72.73;99618.66;5073542;28;20047;-67
2020/12/10 09:22:33;;;;;;;11.82;7.22;;;;;;;4.06;73.52;99612.53;5072491;28;20078;-67
2020/12/10 09:25:17;;;;;;;11.77;7.85;;;;;;;4.08;74.85;99621.16;5072548;28;20118;-67
2020/12/10 09:28:01;;;;;;;16.80;10.43;;;;;;;4.18;74.11;99616.84;5074017;28;20412;-67
2020/12/10 09:30:45;;;;;;;17.77;10.15;;;;;;;4.13;73.47;99626.06;5072516;28;20055;-68
2020/12/10 09:33:29;;;;;;;19.40;11.10;;;;;;;4.09;74.52;99622.00;5072328;28;20047;-68
2020/12/10 09:36:13;;;;;;;16.20;11.02;;;;;;;4.09;74.92;99611.47;5073398;28;20507;-67
2020/12/10 09:38:57;;;;;;;22.38;12.40;;;;;;;4.09;75.37;99625.50;5073956;28;20051;-67
2020/12/10 09:41:43;;;;;;;18.40;10.55;;;;;;;4.09;74.79;99614.09;5072605;28;20058;-67
2020/12/10 09:44:27;;;;;;;15.63;9.90;;;;;;;4.11;74.96;99618.31;5072349;28;20094;-67
2020/12/10 09:47:11;;;;;;;15.88;10.52;;;;;;;4.09;75.62;99616.72;5073613;28;20511;-66
2020/12/10 09:49:55;;;;;;;17.70;11.60;;;;;;;4.17;76.29;99609.91;5072174;28;20574;-68
2020/12/10 09:52:42;;;;;;;20.50;11.13;;;;;;;4.19;75.96;99608.00;5072612;28;20051;-68
2020/12/10 09:58:29;;;;;;;19.67;11.15;;;;;;;4.18;76.10;99613.38;5073430;28;20071;-68
2020/12/10 10:01:13;;;;;;;25.15;14.25;;;;;;;4.18;76.05;99618.66;5073282;28;20059;-68
2020/12/10 10:03:57;;;;;;;25.88;15.63;;;;;;;4.22;76.29;99610.38;5073255;28;20142;-68
2020/12/10 10:06:44;;;;;;;32.20;18.75;;;;;;;4.25;76.18;99612.78;5072135;28;20420;-68
2020/12/10 10:09:28;;;;;;;36.85;20.85;;;;;;;4.35;74.82;99612.91;5073042;28;20182;-67
2020/12/10 10:12:12;;;;;;;35.83;21.92;;;;;;;4.35;74.61;99607.63;5073185;28;20101;-67
2020/12/10 10:14:56;;;;;;;46.13;19.55;;;;;;;4.33;74.75;99609.53;5072036;28;20118;-67
2020/12/10 10:17:40;;;;;;;24.10;15.93;;;;;;;4.36;75.60;99606.66;5073044;28;20051;-67
2020/12/10 10:20:24;;;;;;;29.52;15.63;;;;;;;4.39;75.10;99599.31;5072781;28;20444;-67
2020/12/10 10:23:09;;;;;;;37.13;22.33;;;;;;;4.39;75.24;99598.50;5072190;28;20520;-68
2020/12/10 10:25:52;;;;;;;75.80;40.45;;;;;;;4.43;75.75;99598.13;5072009;28;20048;-67
2020/12/10 10:28:37;;;;;;;23.45;14.30;;;;;;;4.45;76.20;99596.22;5057818;28;20059;-67
2020/12/10 10:31:21;;;;;;;51.65;26.98;;;;;;;4.49;76.21;99588.88;5073086;28;20087;-68
2020/12/10 10:34:05;;;;;;;64.63;34.55;;;;;;;4.45;75.21;99596.22;5072056;28;20051;-68
2020/12/10 10:36:50;;;;;;;47.88;26.80;;;;;;;4.50;75.49;99590.56;5072824;28;20091;-68
2020/12/10 10:39:34;;;;;;;39.05;23.13;;;;;;;4.49;75.91;99591.53;5073312;28;20075;-68
2020/12/10 10:42:18;;;;;;;34.78;18.08;;;;;;;4.52;75.65;99584.22;5072921;28;20126;-67
2020/12/10 10:45:02;;;;;;;35.78;20.13;;;;;;;4.56;75.50;99585.63;5073436;28;20059;-67
2020/12/10 10:47:46;;;;;;;35.22;20.60;;;;;;;4.56;75.48;99580.34;5076508;28;20074;-67
2020/12/10 10:50:30;;;;;;;24.50;13.43;;;;;;;4.65;74.11;99578.75;5076467;28;20051;-67
2020/12/10 10:53:14;;;;;;;29.90;16.98;;;;;;;4.60;73.88;99584.44;5076457;28;20086;-67
2020/12/10 10:55:59;;;;;;;37.40;21.95;;;;;;;4.66;74.46;99583.09;5076799;28;20186;-68
2020/12/10 10:58:43;;;;;;;18.70;11.68;;;;;;;4.66;73.87;99580.47;5076495;28;20048;-68
2020/12/10 11:01:28;;;;;;;17.08;11.20;;;;;;;4.67;73.61;99592.69;5076402;28;20051;-67
2020/12/10 11:04:12;;;;;;;18.33;11.27;;;;;;;4.68;73.97;99583.81;5076411;28;20131;-68
2020/12/10 11:06:56;;;;;;;25.92;15.23;;;;;;;4.73;74.04;99579.84;5061137;28;20047;-68
2020/12/10 11:09:41;;;;;;;25.83;14.60;;;;;;;4.69;74.12;99580.22;5075345;28;20079;-67
2020/12/10 11:12:26;;;;;;;21.88;12.52;;;;;;;4.68;74.43;99589.09;5076264;28;20043;-67
2020/12/10 11:15:10;;;;;;;20.13;11.98;;;;;;;4.75;74.17;99584.97;5074956;28;20056;-67
2020/12/10 11:17:53;;;;;;;19.98;11.65;;;;;;;4.69;73.42;99588.94;5060763;28;20059;-67
2020/12/10 11:20:38;;;;;;;20.20;12.15;;;;;;;4.53;73.97;99574.47;5060842;28;20086;-67
2020/12/10 11:23:22;;;;;;;19.98;12.70;;;;;;;4.52;74.54;99586.00;5060748;28;20074;-67
2020/12/10 11:26:06;;;;;;;18.85;11.93;;;;;;;4.58;74.88;99577.59;5076041;28;20097;-67
2020/12/10 11:28:50;;;;;;;17.45;11.48;;;;;;;4.49;75.03;99573.88;5176218;22;20558;-68
2020/12/10 11:31:34;;;;;;;19.17;11.82;;;;;;;4.49;75.01;99578.34;5074757;28;20516;-69
2020/12/10 11:34:18;;;;;;;22.45;13.75;;;;;;;4.51;75.41;99581.69;5075690;28;20504;-67
2020/12/10 11:37:02;;;;;;;29.38;17.23;;;;;;;4.53;75.19;99585.03;5075751;28;20051;-68
2020/12/10 11:39:46;;;;;;;22.48;14.40;;;;;;;4.59;75.37;99584.56;5074933;28;20062;-68
2020/12/10 11:42:30;;;;;;;17.90;11.88;;;;;;;4.63;74.76;99575.41;5074684;28;20118;-67
2020/12/10 11:45:14;;;;;;;28.23;18.70;;;;;;;4.68;75.08;99573.25;5075732;28;20504;-67
2020/12/10 11:48:03;;;;;;;44.63;29.48;;;;;;;4.76;75.01;99573.47;5075595;28;20087;-67
2020/12/10 11:50:47;;;;;;;22.13;13.15;;;;;;;4.69;74.30;99570.47;5074636;28;20074;-67
2020/12/10 11:53:34;;;;;;;20.15;12.32;;;;;;;4.73;74.56;99566.63;5074468;28;20047;-67
2020/12/10 11:56:18;;;;;;;19.35;12.43;;;;;;;4.70;74.04;99566.88;5060344;28;20121;-67
2020/12/10 11:59:02;;;;;;;19.20;11.80;;;;;;;4.69;73.53;99570.47;5075157;28;20115;-68
2020/12/10 12:01:46;;;;;;;18.48;11.85;;;;;;;4.61;73.72;99565.00;5075161;28;20048;-68
2020/12/10 12:04:32;;;;;;;23.83;15.95;;;;;;;4.55;74.30;99560.19;5074397;28;20071;-67
2020/12/10 12:07:16;;;;;;;23.92;13.77;;;;;;;4.59;75.35;99561.63;5074219;28;20131;-69
2020/12/10 12:09:59;;;;;;;24.65;13.98;;;;;;;4.64;75.33;99561.25;5074098;28;20138;-67
2020/12/10 12:12:44;;;;;;;22.63;14.25;;;;;;;4.75;74.40;99550.66;5075247;28;20071;-70
2020/12/10 12:15:28;;;;;;;30.33;20.65;;;;;;;4.71;74.71;99557.16;5075145;28;20090;-69
2020/12/10 12:18:13;;;;;;;33.08;23.17;;;;;;;4.73;74.76;99561.34;5074762;28;20157;-67
2020/12/10 12:20:57;;;;;;;41.00;26.70;;;;;;;4.80;74.81;99559.06;5073493;28;20094;-69
2020/12/10 12:23:41;;;;;;;44.55;30.40;;;;;;;4.79;75.91;99552.91;5059865;28;20086;-69
2020/12/10 12:26:29;;;;;;;35.08;22.85;;;;;;;4.90;75.36;99552.06;5074703;28;20051;-67
2020/12/10 12:29:13;;;;;;;38.53;27.13;;;;;;;4.90;74.99;99552.06;5059446;28;20408;-69
2020/12/10 12:31:57;;;;;;;38.50;23.67;;;;;;;4.86;75.21;99545.38;5073580;28;20056;-67
2020/12/10 12:34:41;;;;;;;34.80;23.00;;;;;;;4.89;75.61;99545.09;5074081;28;20086;-69
2020/12/10 12:37:26;;;;;;;29.15;17.67;;;;;;;4.92;74.40;99544.84;5074657;28;20553;-69
2020/12/10 12:40:10;;;;;;;30.30;19.60;;;;;;;4.93;74.52;99551.78;5074459;28;20471;-69
2020/12/10 12:42:56;;;;;;;28.75;17.15;;;;;;;4.94;74.76;99544.56;5073589;28;20416;-69
2020/12/10 12:45:41;;;;;;;22.67;14.20;;;;;;;4.93;74.28;99541.22;5074303;28;20051;-69
2020/12/10 12:48:25;;;;;;;26.33;14.98;;;;;;;4.94;74.57;99544.56;5073575;28;20102;-69
2020/12/10 12:51:08;;;;;;;30.98;18.98;;;;;;;4.93;74.53;99542.91;5074567;28;20067;-69
2020/12/10 12:53:54;;;;;;;23.92;14.10;;;;;;;4.88;74.22;99543.44;5059109;28;20424;-69